Time;durP1;ratioP1;P1;durP2;ratioP2;P2;SDS_P1;SDS_P2;PMS_P1;PMS_P2;Temp;Humidity;BMP_temperature;BMP_pressure;BME280_temperature;BME280_humidity;BME280_pressure;Samples;Min_cycle;Max_cycle;Signal;HPM_P1;HPM_P2
2023/05/25 05:17:53;;;;;;;20.17;8.57;;;9.50;99.90;;;;;;5075256;28;20543;-83
2023/05/25 05:30:42;;;;;;;17.93;9.70;;;;;;;;;;5072635;28;20512;-83
2023/05/25 05:38:34;;;;;;;16.37;9.07;;;9.80;99.90;;;;;;5134488;27;20666;-83
2023/05/25 05:50:17;;;;;;;19.13;9.13;;;10.00;99.90;;;;;;5134851;27;20265;-82
2023/05/25 05:57:49;;;;;;;22.50;10.93;;;10.30;99.90;;;;;;5093017;28;20510;-80
2023/05/25 06:05:16;;;;;;;19.20;9.17;;;;;;;;;;5175811;27;20840;-83
2023/05/25 06:12:08;;;;;;;17.13;9.37;;;10.20;99.90;;;;;;5103433;27;20576;-82
2023/05/25 06:17:56;;;;;;;19.93;10.30;;;10.70;99.90;;;;;;5135387;27;20268;-82
2023/05/25 06:23:52;;;;;;;14.40;9.07;;;;;;;;;;4990688;28;20287;-84
2023/05/25 06:28:31;;;;;;;18.20;10.13;;;10.80;99.90;;;;;;5136360;27;20281;-83
2023/05/25 06:32:25;;;;;;;13.23;9.30;;;11.10;99.90;;;;;;5134159;27;20296;-84
2023/05/25 06:36:06;;;;;;;18.90;9.67;;;11.40;99.90;;;;;;5114970;27;20274;-83
2023/05/25 06:40:04;;;;;;;15.70;10.00;;;11.30;99.90;;;;;;5136151;27;20271;-84
2023/05/25 06:44:01;;;;;;;14.73;9.20;;;;;;;;;;5137229;27;20282;-83
2023/05/25 06:46:28;;;;;;;13.63;9.33;;;;;;;;;;5133699;28;20182;-82
2023/05/25 06:48:54;;;;;;;12.77;8.60;;;11.80;99.90;;;;;;5115463;28;20179;-82
2023/05/25 06:51:20;;;;;;;11.90;8.67;;;11.80;99.90;;;;;;5116158;28;20195;-81
2023/05/25 06:53:45;;;;;;;12.67;9.10;;;12.00;99.90;;;;;;5133314;28;20186;-81
2023/05/25 06:56:12;;;;;;;14.47;8.33;;;;;;;;;;5134150;27;20175;-83
2023/05/25 06:58:37;;;;;;;10.97;7.20;;;12.20;99.90;;;;;;5134108;28;20176;-81
2023/05/25 07:01:03;;;;;;;12.77;7.77;;;12.30;99.90;;;;;;5132159;28;20186;-81
2023/05/25 07:03:29;;;;;;;9.97;7.40;;;12.30;99.90;;;;;;5132520;28;20293;-84
2023/05/25 07:05:54;;;;;;;11.30;7.50;;;12.30;99.90;;;;;;5132551;28;20247;-82
2023/05/25 07:08:20;;;;;;;9.37;6.80;;;12.40;99.90;;;;;;5133500;27;20171;-82
2023/05/25 07:10:46;;;;;;;8.73;6.40;;;12.40;99.90;;;;;;5133583;27;20175;-83
2023/05/25 07:13:12;;;;;;;12.73;6.83;;;12.50;99.90;;;;;;5132102;28;20804;-83
2023/05/25 07:15:38;;;;;;;8.30;6.47;;;12.50;99.90;;;;;;5133213;27;20198;-84
2023/05/25 07:18:03;;;;;;;6.87;6.17;;;12.50;99.90;;;;;;5133983;27;20201;-83
2023/05/25 07:20:29;;;;;;;7.27;5.27;;;12.50;99.90;;;;;;5132161;28;20533;-83
2023/05/25 07:22:55;;;;;;;6.93;6.00;;;12.50;99.90;;;;;;5131895;28;20203;-82
2023/05/25 07:25:20;;;;;;;7.07;5.97;;;12.60;99.90;;;;;;5133390;27;20167;-83
2023/05/25 07:27:54;;;;;;;10.97;7.10;;;12.70;99.90;;;;;;5131945;28;20249;-83
2023/05/25 07:30:20;;;;;;;11.33;7.30;;;12.90;99.90;;;;;;5132988;27;20239;-83
2023/05/25 07:32:45;;;;;;;10.83;7.00;;;13.00;99.90;;;;;;5138258;27;20268;-81
2023/05/25 07:35:11;;;;;;;14.83;8.37;;;12.90;99.90;;;;;;5147097;28;20179;-81
2023/05/25 07:37:36;;;;;;;10.03;7.83;;;12.90;99.90;;;;;;5147606;27;20246;-82
2023/05/25 07:40:03;;;;;;;8.80;7.70;;;12.90;99.90;;;;;;5145100;28;20182;-81
2023/05/25 07:42:33;;;;;;;9.40;7.33;;;12.90;99.90;;;;;;5147690;27;20206;-82
2023/05/25 07:44:59;;;;;;;10.50;6.97;;;12.90;99.90;;;;;;5139458;27;20167;-82
2023/05/25 07:47:25;;;;;;;8.43;6.60;;;12.90;99.90;;;;;;5133106;27;20179;-82
2023/05/25 07:49:51;;;;;;;10.37;7.20;;;13.10;99.90;;;;;;5133073;27;20171;-83
2023/05/25 07:52:17;;;;;;;10.70;7.03;;;13.20;99.90;;;;;;5131356;28;20245;-82
2023/05/25 07:54:44;;;;;;;9.67;7.07;;;13.20;99.90;;;;;;5123170;27;20186;-83
2023/05/25 07:57:10;;;;;;;8.00;6.40;;;13.10;99.90;;;;;;5119346;28;20176;-84
2023/05/25 07:59:35;;;;;;;10.03;6.80;;;13.10;99.90;;;;;;5120471;28;20168;-83
2023/05/25 08:02:02;;;;;;;10.30;6.30;;;13.10;99.90;;;;;;5120186;28;20333;-82
2023/05/25 08:04:27;;;;;;;7.97;5.90;;;13.10;99.90;;;;;;5125104;28;20211;-83
2023/05/25 08:06:53;;;;;;;8.77;5.57;;;13.10;99.90;;;;;;5121163;28;20172;-84
2023/05/25 08:09:19;;;;;;;7.33;5.83;;;13.30;99.90;;;;;;5120247;28;20220;-85
2023/05/25 08:11:46;;;;;;;7.40;5.97;;;13.30;99.90;;;;;;5118177;28;20252;-83
2023/05/25 08:14:12;;;;;;;7.07;5.57;;;13.40;99.90;;;;;;5119876;28;20585;-82
2023/05/25 08:16:37;;;;;;;11.47;6.33;;;13.40;99.90;;;;;;5118129;28;20174;-84
2023/05/25 08:19:03;;;;;;;10.70;6.37;;;13.40;99.90;;;;;;5119398;28;20176;-82
2023/05/25 08:21:28;;;;;;;12.30;6.30;;;13.40;99.90;;;;;;5117638;28;20202;-81
2023/05/25 08:23:55;;;;;;;8.03;5.97;;;13.40;99.90;;;;;;5117831;28;20298;-82
2023/05/25 08:26:21;;;;;;;9.37;6.43;;;13.50;99.90;;;;;;5118319;28;20207;-84
2023/05/25 08:28:47;;;;;;;8.73;6.23;;;13.60;99.90;;;;;;5117556;28;20655;-84
2023/05/25 08:31:13;;;;;;;8.47;6.50;;;13.60;99.90;;;;;;5117642;28;20191;-82
2023/05/25 08:33:38;;;;;;;11.33;6.10;;;13.60;99.90;;;;;;5118119;28;20176;-83
2023/05/25 08:36:05;;;;;;;8.60;5.90;;;13.70;99.90;;;;;;5118431;28;20175;-83
2023/05/25 08:38:31;;;;;;;8.37;6.00;;;13.80;99.90;;;;;;5117379;28;20176;-82
2023/05/25 08:41:04;;;;;;;7.00;6.27;;;13.90;99.90;;;;;;5116893;28;20180;-83
2023/05/25 08:43:32;;;;;;;7.70;6.10;;;13.90;99.90;;;;;;5118185;27;20203;-82
2023/05/25 08:46:05;;;;;;;7.20;6.17;;;14.00;99.90;;;;;;5118252;28;20653;-83
2023/05/25 08:48:35;;;;;;;8.13;6.10;;;14.00;99.90;;;;;;5118243;27;20156;-85
2023/05/25 08:51:07;;;;;;;13.10;6.40;;;14.20;99.90;;;;;;5116447;28;20179;-84
2023/05/25 08:53:37;;;;;;;7.77;6.27;;;14.30;99.90;;;;;;5118416;28;20191;-82
2023/05/25 08:56:12;;;;;;;8.10;5.70;;;14.30;99.90;;;;;;5118601;28;20194;-84
2023/05/25 08:58:44;;;;;;;7.07;5.63;;;14.30;99.90;;;;;;5117070;28;20590;-84
2023/05/25 09:01:17;;;;;;;6.67;5.30;;;14.50;99.90;;;;;;5117883;28;20170;-83
2023/05/25 09:03:44;;;;;;;8.80;6.63;;;14.60;99.90;;;;;;5117006;28;20200;-81
2023/05/25 09:06:10;;;;;;;11.70;6.80;;;14.90;99.90;;;;;;5116848;28;20181;-85
2023/05/25 09:08:38;;;;;;;9.07;6.80;;;15.20;99.90;;;;;;5118249;28;20196;-83
2023/05/25 09:11:06;;;;;;;7.47;6.33;;;15.30;99.90;;;;;;5117447;28;20172;-83
2023/05/25 09:13:32;;;;;;;6.40;5.80;;;15.70;99.90;;;;;;5118361;28;20661;-83
2023/05/25 09:15:58;;;;;;;10.30;5.20;;;16.00;99.90;;;;;;5119368;28;20168;-84
2023/05/25 09:18:23;;;;;;;9.37;6.60;;;16.20;99.90;;;;;;5119166;27;20178;-84
2023/05/25 09:20:49;;;;;;;8.17;6.20;;;16.60;99.90;;;;;;5119264;28;20171;-83
2023/05/25 09:23:16;;;;;;;8.37;6.50;;;16.50;99.90;;;;;;5119657;28;20224;-84
2023/05/25 09:25:42;;;;;;;8.00;6.53;;;16.50;99.90;;;;;;5118947;28;20180;-86
2023/05/25 09:28:08;;;;;;;8.10;6.90;;;16.50;99.90;;;;;;5122930;28;20179;-82
2023/05/25 09:30:35;;;;;;;8.77;6.80;;;16.50;99.90;;;;;;5117911;28;20688;-81
2023/05/25 09:33:10;;;;;;;9.73;7.40;;;16.40;99.90;;;;;;5115867;28;20221;-81
2023/05/25 09:35:36;;;;;;;7.97;6.50;;;16.70;99.90;;;;;;5117683;28;20179;-82
2023/05/25 09:38:02;;;;;;;13.27;7.40;;;16.80;99.90;;;;;;5117535;28;20173;-83
2023/05/25 09:40:29;;;;;;;8.60;7.70;;;16.70;99.90;;;;;;5116324;28;20220;-83
2023/05/25 09:42:57;;;;;;;9.33;6.93;;;16.80;99.90;;;;;;5117169;28;20674;-82
2023/05/25 09:45:23;;;;;;;8.97;7.03;;;16.80;99.90;;;;;;5117198;28;20266;-84
2023/05/25 09:47:54;;;;;;;8.60;7.17;;;16.60;99.90;;;;;;5117800;28;20206;-81
2023/05/25 09:50:20;;;;;;;11.27;7.20;;;16.70;99.90;;;;;;5116065;28;20632;-84
2023/05/25 09:52:46;;;;;;;7.83;7.03;;;16.60;99.90;;;;;;5116961;28;20251;-83
2023/05/25 09:55:12;;;;;;;8.00;7.20;;;16.70;99.90;;;;;;5117364;28;20173;-85
2023/05/25 09:57:38;;;;;;;7.93;7.13;;;16.90;99.90;;;;;;5116306;28;20238;-82
2023/05/25 10:00:05;;;;;;;9.17;7.10;;;17.10;99.90;;;;;;5117209;28;20256;-82
2023/05/25 10:02:31;;;;;;;7.87;7.07;;;17.50;99.90;;;;;;5117079;28;20232;-83
2023/05/25 10:04:56;;;;;;;7.97;7.17;;;17.70;99.90;;;;;;5115543;28;20542;-83
2023/05/25 10:07:22;;;;;;;10.10;7.73;;;17.70;99.90;;;;;;5119189;28;20240;-83
2023/05/25 10:09:50;;;;;;;9.53;7.00;;;17.80;99.90;;;;;;5118824;28;20173;-84
2023/05/25 10:12:19;;;;;;;9.70;7.90;;;17.80;99.90;;;;;;5115539;28;20201;-82
2023/05/25 10:14:48;;;;;;;10.60;7.60;;;18.00;99.90;;;;;;5117510;28;20178;-83
2023/05/25 10:17:19;;;;;;;8.73;6.90;;;18.30;99.90;;;;;;5119363;28;20628;-81
2023/05/25 10:19:58;;;;;;;10.07;7.83;;;18.70;99.90;;;;;;5120614;28;20234;-82
2023/05/25 10:22:30;;;;;;;8.23;7.07;;;18.70;99.90;;;;;;5120295;28;20199;-82
2023/05/25 10:25:24;;;;;;;11.07;8.33;;;18.90;99.90;;;;;;5119067;28;20519;-82
2023/05/25 10:28:03;;;;;;;8.33;7.37;;;19.30;99.90;;;;;;5119435;28;20156;-81
2023/05/25 10:30:30;;;;;;;10.07;7.80;;;19.60;99.90;;;;;;5117932;28;20160;-82
2023/05/25 10:32:56;;;;;;;8.30;7.50;;;19.30;99.90;;;;;;5119156;28;20543;-80
2023/05/25 10:35:22;;;;;;;8.30;7.23;;;19.10;99.90;;;;;;5118801;28;20641;-81
2023/05/25 10:37:52;;;;;;;8.93;6.87;;;19.10;99.90;;;;;;5118584;28;20603;-80
2023/05/25 10:40:21;;;;;;;10.60;7.73;;;19.10;99.90;;;;;;5115928;28;20614;-80
2023/05/25 10:42:48;;;;;;;8.17;6.70;;;18.90;99.90;;;;;;5116148;28;20226;-82
2023/05/25 10:45:15;;;;;;;8.50;6.93;;;18.70;99.90;;;;;;5119493;28;20171;-82
2023/05/25 10:47:41;;;;;;;10.63;7.50;;;19.00;99.90;;;;;;5124821;28;20168;-81
2023/05/25 10:50:21;;;;;;;8.97;7.33;;;18.80;99.90;;;;;;5121902;28;20263;-81
2023/05/25 10:53:00;;;;;;;7.43;6.63;;;18.80;99.90;;;;;;5121752;28;20198;-82
2023/05/25 10:55:40;;;;;;;8.27;7.33;;;18.80;99.90;;;;;;5122518;28;20230;-82
2023/05/25 10:58:13;;;;;;;8.13;7.10;;;18.70;99.90;;;;;;5121371;28;20196;-81
2023/05/25 11:00:40;;;;;;;9.40;7.50;;;18.60;99.90;;;;;;5136341;28;20165;-81
2023/05/25 11:03:06;;;;;;;7.93;7.13;;;18.50;99.90;;;;;;5135335;28;20207;-81
2023/05/25 11:05:36;;;;;;;9.77;7.50;;;18.40;99.90;;;;;;5135714;28;20160;-78
2023/05/25 11:08:07;;;;;;;9.07;7.63;;;18.70;99.90;;;;;;5128402;28;20173;-79
2023/05/25 11:10:48;;;;;;;7.90;7.00;;;19.00;99.90;;;;;;5114792;28;20539;-79
2023/05/25 11:13:37;;;;;;;9.17;6.53;;;19.50;99.90;;;;;;5115408;28;20199;-82
2023/05/25 11:16:16;;;;;;;8.40;7.00;;;19.70;99.90;;;;;;5119333;28;20183;-78
2023/05/25 11:18:49;;;;;;;11.00;7.40;;;20.00;99.90;;;;;;5116355;28;20179;-78
2023/05/25 11:21:34;;;;;;;7.90;7.10;;;20.50;99.90;;;;;;5115215;28;20278;-80
2023/05/25 11:24:03;;;;;;;12.10;7.40;;;20.60;99.90;;;;;;5108104;28;20223;-78
2023/05/25 11:26:33;;;;;;;8.50;7.50;;;20.60;99.90;;;;;;5115523;28;20172;-78
2023/05/25 11:29:14;;;;;;;13.90;7.87;;;20.00;99.90;;;;;;5115139;28;20175;-77
2023/05/25 11:31:40;;;;;;;8.33;7.10;;;19.80;99.90;;;;;;5116242;28;20195;-78
2023/05/25 11:34:06;;;;;;;8.40;7.60;;;20.20;99.90;;;;;;5119349;28;20171;-77
2023/05/25 11:36:34;;;;;;;13.00;7.60;;;20.10;99.90;;;;;;5118489;28;20172;-78
2023/05/25 11:39:02;;;;;;;11.03;7.97;;;20.00;99.90;;;;;;5121007;28;20232;-79
2023/05/25 11:41:28;;;;;;;9.50;8.10;;;19.80;99.90;;;;;;5120076;28;20183;-78
2023/05/25 11:43:55;;;;;;;9.23;8.10;;;20.00;99.90;;;;;;5119576;28;20203;-78
2023/05/25 11:46:21;;;;;;;9.53;7.40;;;20.30;99.90;;;;;;5119161;28;20243;-80
2023/05/25 11:48:51;;;;;;;11.67;8.37;;;20.60;99.90;;;;;;5119270;28;20273;-78
2023/05/25 11:51:18;;;;;;;9.77;8.73;;;20.20;99.90;;;;;;5119061;28;20267;-78
2023/05/25 11:53:44;;;;;;;8.63;7.70;;;20.20;99.90;;;;;;5118625;28;20169;-80
2023/05/25 11:56:13;;;;;;;9.43;7.90;;;20.10;99.90;;;;;;5118632;28;20163;-79
2023/05/25 11:58:40;;;;;;;9.90;8.60;;;20.80;99.90;;;;;;5118933;27;20178;-79
2023/05/25 12:01:17;;;;;;;9.60;7.43;;;21.60;99.90;;;;;;5119612;28;20683;-79
2023/05/25 12:03:46;;;;;;;9.43;7.90;;;22.40;99.90;;;;;;5122871;28;20199;-82
2023/05/25 12:06:29;;;;;;;9.80;7.87;;;22.90;99.90;;;;;;5123084;28;20233;-82
2023/05/25 12:08:56;;;;;;;8.20;7.40;;;23.50;99.90;;;;;;5124961;28;20168;-82
2023/05/25 12:11:38;;;;;;;7.97;7.17;;;23.40;99.90;;;;;;5120136;28;20188;-81
2023/05/25 12:14:05;;;;;;;8.73;7.53;;;23.00;99.90;;;;;;5121237;28;20172;-83
2023/05/25 12:16:33;;;;;;;11.27;7.87;;;23.40;99.90;;;;;;5122732;28;20176;-81
2023/05/25 12:19:00;;;;;;;9.70;8.07;;;22.80;99.90;;;;;;5122826;28;20180;-81
2023/05/25 12:21:26;;;;;;;9.47;7.40;;;22.20;99.90;;;;;;5124615;28;20317;-80
2023/05/25 12:23:53;;;;;;;9.40;7.80;;;22.50;99.90;;;;;;5121576;28;20199;-82
2023/05/25 12:26:20;;;;;;;9.00;8.07;;;22.60;99.90;;;;;;5119161;28;20180;-81
2023/05/25 12:29:02;;;;;;;9.93;7.87;;;23.00;99.90;;;;;;5119167;28;20179;-81
2023/05/25 12:31:30;;;;;;;9.87;7.77;;;22.60;99.90;;;;;;5120458;28;20373;-83
2023/05/25 12:34:05;;;;;;;9.67;8.07;;;21.70;99.90;;;;;;5121845;28;20213;-81
2023/05/25 12:36:41;;;;;;;11.60;7.80;;;22.20;99.90;;;;;;5120159;28;20577;-84
2023/05/25 12:39:08;;;;;;;8.20;7.20;;;22.60;99.90;;;;;;5118972;28;20177;-81
2023/05/25 12:41:47;;;;;;;8.37;7.50;;;23.50;99.90;;;;;;5118044;28;20226;-82
2023/05/25 12:44:22;;;;;;;8.03;7.23;;;24.20;99.90;;;;;;5118350;28;20195;-83
2023/05/25 12:46:49;;;;;;;8.77;7.57;;;24.70;99.90;;;;;;5123089;28;20172;-82
2023/05/25 12:49:33;;;;;;;7.23;6.53;;;25.10;99.90;;;;;;5122778;28;20185;-82
2023/05/25 12:52:01;;;;;;;8.60;7.27;;;24.50;99.90;;;;;;5121088;28;20664;-82
2023/05/25 12:54:40;;;;;;;7.77;6.90;;;24.60;99.90;;;;;;5123929;28;20178;-81
2023/05/25 12:57:07;;;;;;;8.90;7.43;;;24.90;99.90;;;;;;5122919;28;20172;-82
2023/05/25 12:59:35;;;;;;;9.43;7.30;;;24.70;99.90;;;;;;5121630;28;20180;-79
2023/05/25 13:02:02;;;;;;;8.00;7.30;;;24.80;99.90;;;;;;5117833;28;20287;-79
2023/05/25 13:04:27;;;;;;;9.63;7.03;;;24.60;99.90;;;;;;5117340;28;20164;-79
2023/05/25 13:06:54;;;;;;;7.33;6.73;;;24.70;99.90;;;;;;5117794;28;20232;-81
2023/05/25 13:09:23;;;;;;;9.20;6.87;;;24.80;99.90;;;;;;5116479;28;20544;-82
2023/05/25 13:11:49;;;;;;;7.47;6.73;;;25.20;99.90;;;;;;5117881;28;20240;-82
2023/05/25 13:14:15;;;;;;;9.10;7.33;;;25.00;99.90;;;;;;5118840;28;20231;-82
2023/05/25 13:16:40;;;;;;;9.97;7.50;;;23.60;99.90;;;;;;5118214;28;20287;-81
2023/05/25 13:19:06;;;;;;;15.17;7.80;;;22.70;99.90;;;;;;5120213;28;20176;-83
2023/05/25 13:21:32;;;;;;;8.53;7.63;;;22.70;99.90;;;;;;5120444;28;20189;-82
2023/05/25 13:23:57;;;;;;;11.60;7.17;;;22.90;99.90;;;;;;5119100;28;20204;-85
2023/05/25 13:26:24;;;;;;;8.07;7.23;;;23.00;99.90;;;;;;5121051;28;20217;-84
2023/05/25 13:28:50;;;;;;;11.10;7.37;;;22.60;99.90;;;;;;5124414;28;20270;-84
2023/05/25 13:31:15;;;;;;;8.13;7.33;;;22.70;99.90;;;;;;5118927;28;20712;-83
2023/05/25 13:33:41;;;;;;;9.80;7.83;;;22.50;99.90;;;;;;5120378;28;20175;-83
2023/05/25 13:36:07;;;;;;;7.97;7.13;;;21.90;99.90;;;;;;5120097;28;20172;-83
2023/05/25 13:38:33;;;;;;;8.83;6.87;;;22.30;99.90;;;;;;5120577;27;20270;-84
2023/05/25 13:41:00;;;;;;;8.77;7.83;;;24.00;99.90;;;;;;5117799;28;20184;-83
2023/05/25 13:43:26;;;;;;;10.10;8.20;;;24.00;99.90;;;;;;5117960;28;20238;-83
2023/05/25 13:45:52;;;;;;;9.17;7.33;;;24.00;99.90;;;;;;5118097;28;20202;-83
2023/05/25 13:48:18;;;;;;;9.93;8.13;;;23.90;99.90;;;;;;5119183;28;20241;-83
2023/05/25 13:50:44;;;;;;;8.00;7.20;;;23.40;99.90;;;;;;5118408;28;20255;-84
2023/05/25 13:53:10;;;;;;;9.23;8.33;;;22.90;99.90;;;;;;5117939;28;20204;-82
2023/05/25 13:55:36;;;;;;;8.30;7.30;;;23.20;99.90;;;;;;5119082;28;20610;-84
2023/05/25 13:58:02;;;;;;;9.87;7.63;;;24.10;99.90;;;;;;5119081;28;20185;-84
2023/05/25 14:00:27;;;;;;;12.83;7.67;;;24.20;99.90;;;;;;5130933;28;20173;-80
2023/05/25 14:02:53;;;;;;;8.10;7.30;;;23.90;99.90;;;;;;5130857;28;20234;-82
2023/05/25 14:05:19;;;;;;;9.87;7.87;;;23.40;99.90;;;;;;5131401;28;20183;-79
2023/05/25 14:07:46;;;;;;;9.20;8.30;;;22.50;99.90;;;;;;5132428;28;20196;-80
2023/05/25 14:10:12;;;;;;;8.73;7.83;;;22.00;99.90;;;;;;5127012;28;20263;-84
2023/05/25 14:12:38;;;;;;;9.20;7.70;;;22.60;99.90;;;;;;5117177;28;20646;-82
2023/05/25 14:15:05;;;;;;;11.30;7.53;;;22.80;99.90;;;;;;5119035;28;20171;-84
2023/05/25 14:17:31;;;;;;;11.70;8.17;;;23.60;99.90;;;;;;5118482;28;20171;-82
2023/05/25 14:19:57;;;;;;;9.80;8.33;;;24.50;99.90;;;;;;5116534;28;20175;-84
2023/05/25 14:22:24;;;;;;;9.53;7.60;;;24.40;99.90;;;;;;5116140;28;20214;-83
2023/05/25 14:24:50;;;;;;;11.27;6.87;;;23.60;99.90;;;;;;5116875;28;20269;-84
2023/05/25 14:27:19;;;;;;;10.50;7.43;;;23.10;99.90;;;;;;5117575;28;20562;-84
2023/05/25 14:29:46;;;;;;;8.43;7.63;;;23.40;99.90;;;;;;5118732;28;20167;-84
2023/05/25 14:32:13;;;;;;;8.60;7.57;;;23.70;99.90;;;;;;5116874;28;20207;-84
2023/05/25 14:34:39;;;;;;;9.40;7.87;;;24.20;99.90;;;;;;5116749;28;20186;-83
2023/05/25 14:37:04;;;;;;;10.40;8.03;;;24.30;99.90;;;;;;5118258;28;20175;-82
2023/05/25 14:39:30;;;;;;;8.87;7.97;;;24.50;99.90;;;;;;5118306;28;20198;-84
2023/05/25 14:41:56;;;;;;;9.17;8.30;;;23.90;99.90;;;;;;5117696;28;20264;-81
2023/05/25 14:44:21;;;;;;;8.63;7.67;;;24.20;99.90;;;;;;5118261;28;20256;-81
2023/05/25 14:46:47;;;;;;;9.53;7.17;;;24.70;99.90;;;;;;5119928;28;20638;-83
2023/05/25 14:49:13;;;;;;;8.57;7.67;;;25.40;99.90;;;;;;5121571;28;20183;-84
2023/05/25 14:51:38;;;;;;;9.43;7.60;;;25.70;99.90;;;;;;5116733;28;20191;-81
2023/05/25 14:54:06;;;;;;;16.93;7.70;;;24.90;99.90;;;;;;5115856;28;20184;-82
2023/05/25 14:56:32;;;;;;;12.43;8.10;;;23.20;99.90;;;;;;5116886;28;20202;-84
2023/05/25 14:58:58;;;;;;;8.47;7.67;;;22.20;99.90;;;;;;5114991;28;20179;-81
2023/05/25 15:01:23;;;;;;;10.07;7.97;;;22.60;99.90;;;;;;5115417;28;20732;-83
2023/05/25 15:03:49;;;;;;;9.60;6.90;;;22.70;99.90;;;;;;5117594;28;20268;-82
2023/05/25 15:06:15;;;;;;;9.40;7.33;;;22.70;99.90;;;;;;5120733;28;20691;-82
2023/05/25 15:08:40;;;;;;;7.47;6.73;;;22.90;99.90;;;;;;5120922;28;20536;-83
2023/05/25 15:11:09;;;;;;;8.87;7.17;;;24.60;99.90;;;;;;5120523;28;20234;-81
2023/05/25 15:13:34;;;;;;;8.93;6.80;;;24.60;99.90;;;;;;5119950;28;20181;-80
2023/05/25 15:16:00;;;;;;;10.00;6.73;;;24.20;99.90;;;;;;5121103;28;20180;-84
2023/05/25 15:18:26;;;;;;;7.73;7.03;;;23.50;99.90;;;;;;5119863;28;20211;-81
2023/05/25 15:20:51;;;;;;;12.03;7.40;;;24.10;99.90;;;;;;5121534;28;20206;-80
2023/05/25 15:23:17;;;;;;;8.87;7.40;;;24.60;99.90;;;;;;5119758;28;20212;-82
2023/05/25 15:25:43;;;;;;;9.70;6.47;;;24.60;99.90;;;;;;5121417;28;20184;-83
2023/05/25 15:28:09;;;;;;;7.00;6.30;;;25.10;99.90;;;;;;5119784;28;20795;-81
2023/05/25 15:30:35;;;;;;;8.27;6.83;;;24.40;99.90;;;;;;5119255;28;20176;-82
2023/05/25 15:33:01;;;;;;;7.67;6.53;;;23.10;99.90;;;;;;5120994;28;20194;-83
2023/05/25 15:35:30;;;;;;;9.07;6.10;;;22.30;99.90;;;;;;5119597;28;20179;-80
2023/05/25 15:38:00;;;;;;;7.63;6.83;;;22.60;99.90;;;;;;5118692;28;20323;-83
2023/05/25 15:40:26;;;;;;;10.13;6.13;;;23.10;99.90;;;;;;5120585;28;20181;-82
2023/05/25 15:42:52;;;;;;;8.23;6.90;;;22.90;99.90;;;;;;5118323;28;20230;-82
2023/05/25 15:45:18;;;;;;;7.53;6.60;;;22.30;99.90;;;;;;5119309;28;20673;-82
2023/05/25 15:47:43;;;;;;;7.43;6.60;;;21.40;99.90;;;;;;5120257;28;20173;-81
2023/05/25 15:50:10;;;;;;;10.47;6.60;;;21.40;99.90;;;;;;5118674;28;20574;-81
2023/05/25 15:52:36;;;;;;;14.27;7.37;;;22.10;99.90;;;;;;5118800;28;20230;-82
2023/05/25 15:55:01;;;;;;;8.30;7.03;;;21.80;99.90;;;;;;5120718;28;20220;-83
2023/05/25 15:57:27;;;;;;;7.47;6.70;;;21.20;99.90;;;;;;5118696;28;20228;-82
2023/05/25 15:59:53;;;;;;;8.47;7.17;;;21.30;99.90;;;;;;5119689;28;20183;-82
2023/05/25 16:02:19;;;;;;;8.43;6.43;;;21.10;99.90;;;;;;5119359;28;20254;-83
2023/05/25 16:04:45;;;;;;;8.60;7.77;;;21.80;99.90;;;;;;5121173;28;20172;-84
2023/05/25 16:07:11;;;;;;;8.10;6.60;;;22.40;99.90;;;;;;5125268;28;20618;-81
2023/05/25 16:09:36;;;;;;;11.60;7.23;;;22.20;99.90;;;;;;5122716;28;20657;-81
2023/05/25 16:12:02;;;;;;;10.77;7.27;;;21.80;99.90;;;;;;5119025;28;20329;-82
2023/05/25 16:14:28;;;;;;;10.90;7.87;;;21.50;99.90;;;;;;5119292;28;20629;-83
2023/05/25 16:16:53;;;;;;;13.97;8.13;;;21.50;99.90;;;;;;5119505;28;20174;-82
2023/05/25 16:19:19;;;;;;;9.70;7.50;;;21.10;99.90;;;;;;5118541;28;20175;-82
2023/05/25 16:21:45;;;;;;;8.10;7.13;;;20.60;99.90;;;;;;5119993;28;20548;-83
2023/05/25 16:24:10;;;;;;;14.47;7.40;;;20.00;99.90;;;;;;5118474;28;20209;-83
2023/05/25 16:26:36;;;;;;;16.47;8.53;;;19.90;99.90;;;;;;5118948;28;20204;-81
2023/05/25 16:29:02;;;;;;;10.27;7.70;;;20.00;99.90;;;;;;5120410;28;20172;-83
2023/05/25 16:31:28;;;;;;;10.03;7.33;;;19.80;99.90;;;;;;5119750;28;20192;-84
2023/05/25 16:33:53;;;;;;;9.13;7.10;;;19.60;99.90;;;;;;5119308;28;20637;-85
2023/05/25 16:36:19;;;;;;;12.73;7.47;;;19.40;99.90;;;;;;5120157;28;20168;-84
2023/05/25 16:38:45;;;;;;;10.10;7.50;;;19.30;99.90;;;;;;5120663;28;20175;-81
2023/05/25 16:41:11;;;;;;;10.57;7.30;;;19.30;99.90;;;;;;5117780;28;20176;-82
2023/05/25 16:43:37;;;;;;;9.20;7.30;;;19.30;99.90;;;;;;5119312;28;20207;-81
2023/05/25 16:46:02;;;;;;;13.93;7.47;;;19.20;99.90;;;;;;5117988;28;20534;-81
2023/05/25 16:48:31;;;;;;;10.53;7.80;;;19.40;99.90;;;;;;5119343;28;20172;-83
2023/05/25 16:50:57;;;;;;;13.00;6.93;;;19.00;99.90;;;;;;5118588;28;20170;-79
2023/05/25 16:53:23;;;;;;;10.27;7.50;;;19.00;99.90;;;;;;5117736;28;20182;-80
2023/05/25 16:55:49;;;;;;;9.07;7.40;;;18.80;99.90;;;;;;5118438;28;20643;-80
2023/05/25 16:58:15;;;;;;;10.67;7.77;;;18.70;99.90;;;;;;5118447;28;20174;-81
2023/05/25 17:00:43;;;;;;;16.40;8.60;;;18.60;99.90;;;;;;5116986;28;20185;-81
2023/05/25 17:03:09;;;;;;;10.93;7.67;;;18.50;99.90;;;;;;5118956;28;20685;-79
2023/05/25 17:05:35;;;;;;;9.33;8.07;;;18.60;99.90;;;;;;5117127;28;20174;-80
2023/05/25 17:08:00;;;;;;;14.77;7.43;;;18.60;99.90;;;;;;5117483;28;20276;-80
2023/05/25 17:10:26;;;;;;;10.20;7.50;;;18.60;99.90;;;;;;5118566;28;20179;-79
2023/05/25 17:12:51;;;;;;;9.23;7.63;;;18.60;99.90;;;;;;5119860;28;20311;-81
2023/05/25 17:15:17;;;;;;;12.77;7.53;;;18.60;99.90;;;;;;5118688;28;20177;-81
2023/05/25 17:17:43;;;;;;;10.20;7.67;;;18.60;99.90;;;;;;5118686;28;20653;-83
2023/05/25 17:20:10;;;;;;;8.50;7.60;;;18.50;99.90;;;;;;5123338;28;20184;-81
2023/05/25 17:22:36;;;;;;;11.23;8.33;;;18.40;99.90;;;;;;5132345;28;20211;-85
2023/05/25 18:23:25;;;;;;;12.70;8.77;;;17.80;99.90;;;;;;5156190;27;21034;-84
